Nearby METAR Reports

 

KEDC - Austin Exec, Texas, USA
Distance from station: SSE 10mi, 17km
Updated: Thu, 06-Aug-2020 4:35pm CDT
Clear
Clear
 Wind from S
Wind: S 9 mph , 15 km/h
Temperature: 99°F , 37°C
Dew Point: 61°F , 16°C
Humidity: 29%
Barometer: 29.94 inHg , 1013.9 hPa
Clouds: Clear
Visibility: 10 miles , 16 km
2020/08/06 21:35 KEDC 062135Z AUTO 18008KT 130V200 10SM CLR 37/16 A2994 RMK AO2
KGTU - Georgetown, Texas, USA
Distance from station: NNW 11mi, 17km
Updated: Thu, 06-Aug-2020 3:56pm CDT
Clear
Clear
 Wind from SSE
Wind: SSE 14 mph , 22 km/h, Gust: 18 mph , 30 km/h
Temperature: 97°F , 36°C
Dew Point: 64°F , 18°C
Humidity: 34%
Barometer: 29.97 inHg , 1014.9 hPa
Clouds: Clear
Visibility: 10 miles , 16 km
2020/08/06 20:56 KGTU 062056Z 15012G16KT 10SM CLR 36/18 A2997 RMK AO2 SLP140 T03610178 56016
 
KATT - Austin/Mabry, Texas, USA
Distance from station: SSW 18mi, 30km
Updated: Thu, 06-Aug-2020 3:51pm CDT
Clear
Clear
 Wind from S
Wind: S 8 mph , 13 km/h, Gust: 21 mph , 33 km/h
Temperature: 102°F , 39°C
Dew Point: 63°F , 17°C
Humidity: 27%
Barometer: 29.96 inHg , 1014.6 hPa
Clouds: Clear
Visibility: 10 miles , 16 km
2020/08/06 20:51 KATT 062051Z AUTO 18007G18KT 130V220 10SM CLR 39/17 A2996 RMK AO2 SLP129 T03890167 56017
KRYW - Lago Vista, Texas, USA
Distance from station: W 22mi, 35km
Updated: Thu, 06-Aug-2020 4:35pm CDT
Clear
Clear
 Wind from SSE
Wind: SSE 10 mph , 17 km/h, Gust: 21 mph , 33 km/h
Temperature: 97°F , 36°C
Dew Point: 63°F , 17°C
Humidity: 32%
Barometer: 29.98 inHg , 1015.2 hPa
Clouds: Clear
Visibility: 10 miles , 16 km
2020/08/06 21:35 KRYW 062135Z AUTO 15009G18KT 110V220 10SM CLR 36/17 A2998 RMK AO2 T03620172
 
KAUS - Austin, Texas, USA
Distance from station: S 25mi, 41km
Updated: Thu, 06-Aug-2020 3:53pm CDT
Few Clouds
Few Clouds
 Wind from SSE
Wind: SSE 13 mph , 20 km/h, Gust: 24 mph , 39 km/h
Temperature: 99°F , 37°C
Dew Point: 64°F , 18°C
Humidity: 33%
Barometer: 29.94 inHg , 1013.9 hPa
Clouds: Few Clouds
Visibility: 10 miles , 16 km
Cloud details: Few Clouds 7500 ft
2020/08/06 20:53 KAUS 062053Z 16011G21KT 10SM FEW075 37/18 A2994 RMK AO2 SLP126 T03720183 56016 $
KILE - Killeen Muni, Texas, USA
Distance from station: N 36mi, 58km
Updated: Thu, 06-Aug-2020 3:56pm CDT

 Wind from S
Wind: S 12 mph , 19 km/h, Gust: 23 mph , 37 km/h
Temperature: 99°F , 37°C
Dew Point: 64°F , 18°C
Humidity: 33%
Barometer: 29.95 inHg , 1014.2 hPa
Visibility: 10 miles , 16 km
2020/08/06 20:56 KILE 062056Z AUTO 17010G20KT 10SM 37/18 A2995 RMK AO2 SLP126 T03720183 58017 $
 
KGRK - Gray/Ft Hood, Texas, USA
Distance from station: NNW 38mi, 62km
Updated: Thu, 06-Aug-2020 3:58pm CDT
Clear
Clear
 Wind from SSE
Wind: SSE 14 mph , 22 km/h
Temperature: 99°F , 37°C
Dew Point: 57°F , 14°C
Humidity: 25%
Barometer: 29.95 inHg , 1014.2 hPa
Clouds: Clear
Visibility: 10 miles , 16 km
2020/08/06 20:58 KGRK 062058Z AUTO 16012KT 10SM CLR 37/14 A2995 RMK AO2 SLP128 T03730139 57016
KBMQ - Burnet, Texas, USA
Distance from station: WNW 39mi, 64km
Updated: Thu, 06-Aug-2020 3:53pm CDT
Clear
Clear
 Wind from SE
Wind: SE 9 mph , 15 km/h, Gust: 22 mph , 35 km/h
Temperature: 97°F , 36°C
Dew Point: 55°F , 13°C
Humidity: 25%
Barometer: 29.99 inHg , 1015.6 hPa
Clouds: Clear
Visibility: 10 miles , 16 km
2020/08/06 20:53 KBMQ 062053Z AUTO 13008G19KT 10SM CLR 36/13 A2999 RMK AO2 SLP134 T03560133 56015
 
KHLR - Ft Hood/Killeen, Texas, USA
Distance from station: N 41mi, 66km
Updated: Thu, 06-Aug-2020 4:12pm CDT
Clear
Clear
 Wind from SSE
Wind: SSE 14 mph , 22 km/h
Temperature: 99°F , 37°C
Dew Point: 61°F , 16°C
Humidity: 29%
Barometer: 29.95 inHg , 1014.2 hPa
Clouds: Clear
Visibility: 10 miles , 16 km
2020/08/06 21:12 KHLR 062112Z AUTO 16012KT 10SM CLR 37/16 A2995 RMK AO2 WSHFT 2059 SLP128
KTPL - Temple/Miller, Texas, USA
Distance from station: NNE 42mi, 68km
Updated: Thu, 06-Aug-2020 3:51pm CDT
Clear
Clear
 Wind from SSE
Wind: SSE 10 mph , 17 km/h, Gust: 22 mph , 35 km/h
Temperature: 99°F , 37°C
Dew Point: 64°F , 18°C
Humidity: 33%
Barometer: 29.95 inHg , 1014.2 hPa
Clouds: Clear
Visibility: 10 miles , 16 km
2020/08/06 20:51 KTPL 062051Z AUTO 15009G19KT 10SM CLR 37/18 A2995 RMK AO2 SLP129 T03720178 58017
 
KT35 - Cameron, Texas, USA
Distance from station: ENE 45mi, 72km
Updated: Thu, 06-Aug-2020 4:35pm CDT
Clear
Clear
 Wind from SSE
Wind: SSE 12 mph , 19 km/h, Gust: 17 mph , 28 km/h
Temperature: 99°F , 37°C
Dew Point: 66°F , 19°C
Humidity: 35%
Barometer: 29.93 inHg , 1013.5 hPa
Clouds: Clear
Visibility: 10 miles , 16 km
2020/08/06 21:35 KT35 062135Z AUTO 16010G15KT 10SM CLR 37/19 A2993 RMK AO2 T03730186 TSNO
KDZB - Horseshoe Bay, Texas, USA
Distance from station: W 45mi, 73km
Updated: Thu, 06-Aug-2020 4:35pm CDT
Clear
Clear
 Wind from S
Wind: S 12 mph , 19 km/h, Gust: 21 mph , 33 km/h
Temperature: 99°F , 37°C
Dew Point: 59°F , 15°C
Humidity: 27%
Barometer: 29.96 inHg , 1014.6 hPa
Clouds: Clear
Visibility: 10 miles , 16 km
2020/08/06 21:35 KDZB 062135Z AUTO 17010G18KT 10SM CLR 37/15 A2996 RMK AO2
 
KGYB - Giddings-Lee, Texas, USA
Distance from station: SE 45mi, 73km
Updated: Thu, 06-Aug-2020 4:35pm CDT
Clear
Clear
 Wind from SSE
Wind: SSE 10 mph , 17 km/h, Gust: 18 mph , 30 km/h
Temperature: 99°F , 37°C
Dew Point: 70°F , 21°C
Humidity: 39%
Barometer: 29.96 inHg , 1014.6 hPa
Clouds: Clear
Visibility: 10 miles , 16 km
2020/08/06 21:35 KGYB 062135Z AUTO 16009G16KT 10SM CLR 37/21 A2996 RMK AO2 T03690206
KHYI - San Marcos, Texas, USA
Distance from station: SSW 48mi, 78km
Updated: Thu, 06-Aug-2020 3:56pm CDT
Clear
Clear
 Wind from SSE
Wind: SSE 18 mph , 30 km/h, Gust: 24 mph , 39 km/h
Temperature: 99°F , 37°C
Dew Point: 64°F , 18°C
Humidity: 33%
Barometer: 29.96 inHg , 1014.6 hPa
Clouds: Clear
Visibility: 10 miles , 16 km
2020/08/06 20:56 KHYI 062056Z 15016G21KT 10SM CLR 37/18 A2996 RMK AO2 SLP132 T03720178 56017
 
KLZZ - Lampasas, Texas, USA
Distance from station: NW 52mi, 84km
Updated: Thu, 06-Aug-2020 4:35pm CDT
Clear
Clear
 Wind from S
Wind: S 13 mph , 20 km/h, Gust: 24 mph , 39 km/h
Temperature: 99°F , 37°C
Dew Point: 59°F , 15°C
Humidity: 27%
Barometer: 29.94 inHg , 1013.9 hPa
Clouds: Clear
Visibility: 10 miles , 16 km
2020/08/06 21:35 KLZZ 062135Z AUTO 18011G21KT 10SM CLR 37/15 A2994 RMK AO2 T03730148
KRWV - Caldwell, Texas, USA
Distance from station: E 54mi, 87km
Updated: Thu, 06-Aug-2020 4:35pm CDT
Clear
Clear
 Wind from SE
Wind: SE 12 mph , 19 km/h, Gust: 20 mph , 31 km/h
Temperature: 97°F , 36°C
Heat Index: 106°F , 41°C
Dew Point: 72°F , 22°C
Humidity: 44%
Barometer: 29.95 inHg , 1014.2 hPa
Clouds: Clear
Visibility: 10 miles , 16 km
2020/08/06 21:35 KRWV 062135Z AUTO 14010G17KT 10SM CLR 36/22 A2995 RMK AO2 T03550215
 
K3T5 - La Grange, Texas, USA
Distance from station: SE 59mi, 95km
Updated: Thu, 06-Aug-2020 4:35pm CDT
Partly cloudy
Partly cloudy
 Wind from SE
Wind: SE 12 mph , 19 km/h, Gust: 18 mph , 30 km/h
Temperature: 97°F , 36°C
Heat Index: 104°F , 40°C
Dew Point: 70°F , 21°C
Humidity: 42%
Barometer: 29.93 inHg , 1013.5 hPa
Clouds: Partly cloudy
Visibility: 10 miles , 16 km
Cloud details: Partly cloudy 5500 ft
2020/08/06 21:35 K3T5 062135Z AUTO 14010G16KT 10SM SCT055 36/21 A2993 RMK AO2 T03610213
KGOP - Gatesville, Texas, USA
Distance from station: N 61mi, 99km
Updated: Thu, 06-Aug-2020 4:35pm CDT
Clear
Clear
 Wind from SSE
Wind: SSE 10 mph , 17 km/h, Gust: 17 mph , 28 km/h
Temperature: 99°F , 37°C
Dew Point: 61°F , 16°C
Humidity: 29%
Barometer: 29.95 inHg , 1014.2 hPa
Clouds: Clear
Visibility: 10 miles , 16 km
2020/08/06 21:35 KGOP 062135Z AUTO 16009G15KT 10SM CLR 37/16 A2995 RMK AO2
 
KLHB - Hearne Muni, Texas, USA
Distance from station: ENE 63mi, 101km
Updated: Thu, 06-Aug-2020 4:35pm CDT
Clear
Clear
 Wind from SE
Wind: SE 12 mph , 19 km/h, Gust: 18 mph , 30 km/h
Temperature: 97°F , 36°C
Heat Index: 104°F , 40°C
Dew Point: 70°F , 21°C
Humidity: 42%
Barometer: 29.95 inHg , 1014.2 hPa
Clouds: Clear
Visibility: 10 miles , 16 km
2020/08/06 21:35 KLHB 062135Z AUTO 13010G16KT 10SM CLR 36/21 A2995 RMK AO2 T03630212
KBAZ - New Braunfels, Texas, USA
Distance from station: SSW 63mi, 102km
Updated: Thu, 06-Aug-2020 3:51pm CDT
Clear
Clear
 Wind from SSW
Wind: SSW 13 mph , 20 km/h, Gust: 24 mph , 39 km/h
Temperature: 100°F , 38°C
Dew Point: 63°F , 17°C
Humidity: 29%
Barometer: 29.94 inHg , 1013.9 hPa
Clouds: Clear
Visibility: 10 miles , 16 km
2020/08/06 20:51 KBAZ 062051Z 20011G21KT 10SM CLR 38/17 A2994 RMK AO2 PK WND 17026/2033 SLP129 T03780167 56016